sensor_id;sensor_type;location;lat;lon;timestamp;P1;durP1;ratioP1;P2;durP2;ratioP2
57025;SDS011;43961;52.940;6.834;2022-12-07T00:03:42;16.58;;;6.55;;
57025;SDS011;43961;52.940;6.834;2022-12-07T00:06:11;14.77;;;6.65;;
57025;SDS011;43961;52.940;6.834;2022-12-07T00:08:38;15.52;;;6.43;;
57025;SDS011;43961;52.940;6.834;2022-12-07T00:11:08;17.02;;;6.28;;
57025;SDS011;43961;52.940;6.834;2022-12-07T00:13:38;19.95;;;7.13;;
57025;SDS011;43961;52.940;6.834;2022-12-07T00:16:09;19.10;;;6.25;;
57025;SDS011;43961;52.940;6.834;2022-12-07T00:18:37;14.30;;;4.93;;
57025;SDS011;43961;52.940;6.834;2022-12-07T00:21:04;14.82;;;5.72;;
57025;SDS011;43961;52.940;6.834;2022-12-07T00:23:32;7.38;;;4.65;;
57025;SDS011;43961;52.940;6.834;2022-12-07T00:26:12;19.23;;;5.47;;
57025;SDS011;43961;52.940;6.834;2022-12-07T00:28:47;15.05;;;4.97;;
57025;SDS011;43961;52.940;6.834;2022-12-07T00:31:14;14.20;;;4.85;;
57025;SDS011;43961;52.940;6.834;2022-12-07T00:33:42;12.40;;;5.10;;
57025;SDS011;43961;52.940;6.834;2022-12-07T00:36:09;9.93;;;4.28;;
57025;SDS011;43961;52.940;6.834;2022-12-07T00:38:37;13.68;;;5.28;;
57025;SDS011;43961;52.940;6.834;2022-12-07T00:41:04;15.50;;;4.00;;
57025;SDS011;43961;52.940;6.834;2022-12-07T00:43:31;16.65;;;4.55;;
57025;SDS011;43961;52.940;6.834;2022-12-07T00:45:57;14.75;;;4.28;;
57025;SDS011;43961;52.940;6.834;2022-12-07T00:48:23;19.80;;;4.28;;
57025;SDS011;43961;52.940;6.834;2022-12-07T00:50:49;7.53;;;3.10;;
57025;SDS011;43961;52.940;6.834;2022-12-07T00:53:16;6.68;;;2.22;;
57025;SDS011;43961;52.940;6.834;2022-12-07T00:55:42;14.57;;;4.95;;
57025;SDS011;43961;52.940;6.834;2022-12-07T00:58:08;11.20;;;4.18;;
57025;SDS011;43961;52.940;6.834;2022-12-07T01:00:38;7.47;;;3.60;;
57025;SDS011;43961;52.940;6.834;2022-12-07T01:03:05;12.05;;;4.82;;
57025;SDS011;43961;52.940;6.834;2022-12-07T01:05:32;7.32;;;3.08;;
57025;SDS011;43961;52.940;6.834;2022-12-07T01:07:58;11.18;;;3.40;;
57025;SDS011;43961;52.940;6.834;2022-12-07T01:10:25;11.93;;;4.40;;
57025;SDS011;43961;52.940;6.834;2022-12-07T01:12:51;10.18;;;4.15;;
57025;SDS011;43961;52.940;6.834;2022-12-07T01:15:17;15.80;;;3.78;;
57025;SDS011;43961;52.940;6.834;2022-12-07T01:17:43;8.25;;;3.17;;
57025;SDS011;43961;52.940;6.834;2022-12-07T01:20:09;23.60;;;4.45;;
57025;SDS011;43961;52.940;6.834;2022-12-07T01:22:39;11.50;;;4.10;;
57025;SDS011;43961;52.940;6.834;2022-12-07T01:25:06;13.85;;;4.53;;
57025;SDS011;43961;52.940;6.834;2022-12-07T01:27:34;14.50;;;4.88;;
57025;SDS011;43961;52.940;6.834;2022-12-07T01:30:00;17.95;;;5.80;;
57025;SDS011;43961;52.940;6.834;2022-12-07T01:32:27;17.25;;;4.13;;
57025;SDS011;43961;52.940;6.834;2022-12-07T01:34:54;14.00;;;4.10;;
57025;SDS011;43961;52.940;6.834;2022-12-07T01:37:20;12.52;;;3.88;;
57025;SDS011;43961;52.940;6.834;2022-12-07T01:39:48;12.98;;;5.18;;
57025;SDS011;43961;52.940;6.834;2022-12-07T01:42:14;13.40;;;4.38;;
57025;SDS011;43961;52.940;6.834;2022-12-07T01:47:45;16.15;;;4.53;;
57025;SDS011;43961;52.940;6.834;2022-12-07T01:50:16;13.40;;;4.53;;
57025;SDS011;43961;52.940;6.834;2022-12-07T01:52:42;16.80;;;3.88;;
57025;SDS011;43961;52.940;6.834;2022-12-07T01:55:11;11.52;;;2.90;;
57025;SDS011;43961;52.940;6.834;2022-12-07T01:57:43;13.60;;;2.60;;
57025;SDS011;43961;52.940;6.834;2022-12-07T02:00:14;24.65;;;4.28;;
57025;SDS011;43961;52.940;6.834;2022-12-07T02:02:43;13.13;;;3.67;;
57025;SDS011;43961;52.940;6.834;2022-12-07T02:05:20;9.93;;;3.65;;
57025;SDS011;43961;52.940;6.834;2022-12-07T02:07:47;8.38;;;3.00;;
57025;SDS011;43961;52.940;6.834;2022-12-07T02:10:15;16.05;;;4.15;;
57025;SDS011;43961;52.940;6.834;2022-12-07T02:12:56;9.65;;;2.10;;
57025;SDS011;43961;52.940;6.834;2022-12-07T02:23:41;10.27;;;2.75;;
57025;SDS011;43961;52.940;6.834;2022-12-07T02:31:55;11.57;;;2.83;;
57025;SDS011;43961;52.940;6.834;2022-12-07T02:34:47;11.70;;;3.00;;
57025;SDS011;43961;52.940;6.834;2022-12-07T02:40:16;11.27;;;2.70;;
57025;SDS011;43961;52.940;6.834;2022-12-07T02:43:18;15.02;;;2.58;;
57025;SDS011;43961;52.940;6.834;2022-12-07T02:45:48;11.05;;;3.60;;
57025;SDS011;43961;52.940;6.834;2022-12-07T02:48:17;7.47;;;2.45;;
57025;SDS011;43961;52.940;6.834;2022-12-07T02:50:49;12.43;;;2.55;;
57025;SDS011;43961;52.940;6.834;2022-12-07T02:53:33;7.88;;;2.35;;
57025;SDS011;43961;52.940;6.834;2022-12-07T03:07:25;13.52;;;3.13;;
57025;SDS011;43961;52.940;6.834;2022-12-07T03:12:36;10.00;;;2.65;;
57025;SDS011;43961;52.940;6.834;2022-12-07T03:15:13;4.45;;;1.15;;
57025;SDS011;43961;52.940;6.834;2022-12-07T03:17:43;11.48;;;3.30;;
57025;SDS011;43961;52.940;6.834;2022-12-07T03:20:11;15.93;;;2.53;;
57025;SDS011;43961;52.940;6.834;2022-12-07T03:22:41;12.02;;;2.63;;
57025;SDS011;43961;52.940;6.834;2022-12-07T03:25:10;7.32;;;1.75;;
57025;SDS011;43961;52.940;6.834;2022-12-07T03:27:41;11.20;;;2.17;;
57025;SDS011;43961;52.940;6.834;2022-12-07T03:30:17;15.98;;;2.80;;
57025;SDS011;43961;52.940;6.834;2022-12-07T03:32:47;12.45;;;3.13;;
57025;SDS011;43961;52.940;6.834;2022-12-07T03:35:32;12.82;;;2.30;;
57025;SDS011;43961;52.940;6.834;2022-12-07T03:39:07;13.32;;;2.92;;
57025;SDS011;43961;52.940;6.834;2022-12-07T03:41:27;10.02;;;2.65;;
57025;SDS011;43961;52.940;6.834;2022-12-07T03:49:20;16.50;;;3.17;;
57025;SDS011;43961;52.940;6.834;2022-12-07T03:54:53;7.65;;;2.38;;
57025;SDS011;43961;52.940;6.834;2022-12-07T03:57:26;9.50;;;2.45;;
57025;SDS011;43961;52.940;6.834;2022-12-07T03:59:54;13.43;;;3.00;;
57025;SDS011;43961;52.940;6.834;2022-12-07T04:02:22;11.50;;;2.37;;
57025;SDS011;43961;52.940;6.834;2022-12-07T04:04:51;12.05;;;2.60;;
57025;SDS011;43961;52.940;6.834;2022-12-07T04:07:16;10.85;;;3.35;;
57025;SDS011;43961;52.940;6.834;2022-12-07T04:09:42;14.02;;;1.77;;
57025;SDS011;43961;52.940;6.834;2022-12-07T04:12:09;10.48;;;2.33;;
57025;SDS011;43961;52.940;6.834;2022-12-07T04:14:34;17.42;;;3.28;;
57025;SDS011;43961;52.940;6.834;2022-12-07T04:17:00;7.82;;;2.25;;
57025;SDS011;43961;52.940;6.834;2022-12-07T04:19:27;10.93;;;3.28;;
57025;SDS011;43961;52.940;6.834;2022-12-07T04:21:56;5.75;;;2.08;;
57025;SDS011;43961;52.940;6.834;2022-12-07T04:24:22;8.95;;;2.60;;
57025;SDS011;43961;52.940;6.834;2022-12-07T04:26:48;7.18;;;2.72;;
57025;SDS011;43961;52.940;6.834;2022-12-07T04:29:15;11.77;;;3.67;;
57025;SDS011;43961;52.940;6.834;2022-12-07T04:31:42;3.50;;;1.52;;
57025;SDS011;43961;52.940;6.834;2022-12-07T04:34:08;6.05;;;1.30;;
57025;SDS011;43961;52.940;6.834;2022-12-07T04:36:34;9.18;;;2.45;;
57025;SDS011;43961;52.940;6.834;2022-12-07T04:39:03;14.35;;;3.40;;
57025;SDS011;43961;52.940;6.834;2022-12-07T04:41:29;2.85;;;0.90;;
57025;SDS011;43961;52.940;6.834;2022-12-07T04:43:55;16.35;;;2.70;;
57025;SDS011;43961;52.940;6.834;2022-12-07T04:46:23;13.60;;;2.42;;
57025;SDS011;43961;52.940;6.834;2022-12-07T04:48:50;9.15;;;2.00;;
57025;SDS011;43961;52.940;6.834;2022-12-07T04:51:18;4.10;;;1.80;;
57025;SDS011;43961;52.940;6.834;2022-12-07T04:53:46;6.88;;;2.05;;
57025;SDS011;43961;52.940;6.834;2022-12-07T04:56:11;7.60;;;2.35;;
57025;SDS011;43961;52.940;6.834;2022-12-07T04:58:38;7.05;;;2.42;;
57025;SDS011;43961;52.940;6.834;2022-12-07T05:01:03;12.75;;;2.80;;
57025;SDS011;43961;52.940;6.834;2022-12-07T05:03:29;7.50;;;2.30;;
57025;SDS011;43961;52.940;6.834;2022-12-07T05:05:56;10.40;;;2.45;;
57025;SDS011;43961;52.940;6.834;2022-12-07T05:08:21;5.03;;;1.90;;
57025;SDS011;43961;52.940;6.834;2022-12-07T05:10:48;10.00;;;2.55;;
57025;SDS011;43961;52.940;6.834;2022-12-07T05:13:14;10.07;;;2.60;;
57025;SDS011;43961;52.940;6.834;2022-12-07T05:15:41;4.82;;;1.88;;
57025;SDS011;43961;52.940;6.834;2022-12-07T05:18:10;11.70;;;2.95;;
57025;SDS011;43961;52.940;6.834;2022-12-07T05:20:38;8.48;;;2.30;;
57025;SDS011;43961;52.940;6.834;2022-12-07T05:23:05;16.33;;;2.75;;
57025;SDS011;43961;52.940;6.834;2022-12-07T05:25:31;21.85;;;2.95;;
57025;SDS011;43961;52.940;6.834;2022-12-07T05:27:56;12.77;;;3.08;;
57025;SDS011;43961;52.940;6.834;2022-12-07T05:30:25;13.38;;;2.67;;
57025;SDS011;43961;52.940;6.834;2022-12-07T05:32:52;17.75;;;3.35;;
57025;SDS011;43961;52.940;6.834;2022-12-07T05:35:18;11.98;;;2.20;;
57025;SDS011;43961;52.940;6.834;2022-12-07T05:37:44;7.25;;;2.58;;
57025;SDS011;43961;52.940;6.834;2022-12-07T05:40:11;9.55;;;2.55;;
57025;SDS011;43961;52.940;6.834;2022-12-07T05:42:37;10.20;;;2.33;;
57025;SDS011;43961;52.940;6.834;2022-12-07T05:45:03;7.57;;;2.60;;
57025;SDS011;43961;52.940;6.834;2022-12-07T05:47:30;4.47;;;2.15;;
57025;SDS011;43961;52.940;6.834;2022-12-07T05:49:55;14.77;;;3.20;;
57025;SDS011;43961;52.940;6.834;2022-12-07T05:52:21;5.53;;;1.75;;
57025;SDS011;43961;52.940;6.834;2022-12-07T05:54:47;13.65;;;3.22;;
57025;SDS011;43961;52.940;6.834;2022-12-07T05:57:12;6.43;;;2.45;;
57025;SDS011;43961;52.940;6.834;2022-12-07T05:59:38;10.52;;;1.80;;
57025;SDS011;43961;52.940;6.834;2022-12-07T06:02:05;9.38;;;2.60;;
57025;SDS011;43961;52.940;6.834;2022-12-07T06:04:34;7.38;;;2.28;;
57025;SDS011;43961;52.940;6.834;2022-12-07T06:09:27;11.93;;;2.83;;
57025;SDS011;43961;52.940;6.834;2022-12-07T06:11:55;8.57;;;2.20;;
57025;SDS011;43961;52.940;6.834;2022-12-07T06:14:41;6.50;;;2.35;;
57025;SDS011;43961;52.940;6.834;2022-12-07T06:17:07;10.15;;;2.28;;
57025;SDS011;43961;52.940;6.834;2022-12-07T06:19:33;8.30;;;1.85;;
57025;SDS011;43961;52.940;6.834;2022-12-07T06:22:00;4.22;;;2.13;;
57025;SDS011;43961;52.940;6.834;2022-12-07T06:24:26;4.22;;;2.08;;
57025;SDS011;43961;52.940;6.834;2022-12-07T06:26:52;8.68;;;1.98;;
57025;SDS011;43961;52.940;6.834;2022-12-07T06:29:17;11.52;;;2.88;;
57025;SDS011;43961;52.940;6.834;2022-12-07T06:31:44;17.60;;;6.57;;
57025;SDS011;43961;52.940;6.834;2022-12-07T06:34:11;16.83;;;6.00;;
57025;SDS011;43961;52.940;6.834;2022-12-07T06:36:38;15.77;;;5.88;;
57025;SDS011;43961;52.940;6.834;2022-12-07T06:39:05;16.70;;;5.22;;
57025;SDS011;43961;52.940;6.834;2022-12-07T06:41:32;18.97;;;6.90;;
57025;SDS011;43961;52.940;6.834;2022-12-07T06:43:58;14.95;;;8.77;;
57025;SDS011;43961;52.940;6.834;2022-12-07T06:46:24;17.23;;;8.00;;
57025;SDS011;43961;52.940;6.834;2022-12-07T06:48:50;16.27;;;6.97;;
57025;SDS011;43961;52.940;6.834;2022-12-07T06:51:16;22.00;;;8.02;;
57025;SDS011;43961;52.940;6.834;2022-12-07T06:53:42;16.35;;;5.38;;
57025;SDS011;43961;52.940;6.834;2022-12-07T06:56:07;14.50;;;3.03;;
57025;SDS011;43961;52.940;6.834;2022-12-07T06:58:33;13.38;;;3.70;;
57025;SDS011;43961;52.940;6.834;2022-12-07T07:00:59;10.52;;;3.78;;
57025;SDS011;43961;52.940;6.834;2022-12-07T07:03:24;19.83;;;3.15;;
57025;SDS011;43961;52.940;6.834;2022-12-07T07:05:54;12.45;;;2.33;;
57025;SDS011;43961;52.940;6.834;2022-12-07T07:08:20;12.65;;;2.95;;
57025;SDS011;43961;52.940;6.834;2022-12-07T07:10:45;24.75;;;3.75;;
57025;SDS011;43961;52.940;6.834;2022-12-07T07:13:11;10.07;;;2.72;;
57025;SDS011;43961;52.940;6.834;2022-12-07T07:15:37;12.07;;;3.00;;
57025;SDS011;43961;52.940;6.834;2022-12-07T07:18:03;9.88;;;3.00;;
57025;SDS011;43961;52.940;6.834;2022-12-07T07:20:29;11.75;;;4.18;;
57025;SDS011;43961;52.940;6.834;2022-12-07T07:22:55;16.92;;;2.97;;
57025;SDS011;43961;52.940;6.834;2022-12-07T07:25:21;13.80;;;2.60;;
57025;SDS011;43961;52.940;6.834;2022-12-07T07:27:47;9.43;;;3.05;;
57025;SDS011;43961;52.940;6.834;2022-12-07T07:30:13;4.40;;;2.17;;
57025;SDS011;43961;52.940;6.834;2022-12-07T07:32:38;11.50;;;2.85;;
57025;SDS011;43961;52.940;6.834;2022-12-07T07:35:05;4.65;;;0.90;;
57025;SDS011;43961;52.940;6.834;2022-12-07T07:37:31;9.98;;;3.10;;
57025;SDS011;43961;52.940;6.834;2022-12-07T07:39:57;10.45;;;2.88;;
57025;SDS011;43961;52.940;6.834;2022-12-07T07:42:22;15.45;;;3.28;;
57025;SDS011;43961;52.940;6.834;2022-12-07T07:44:50;14.13;;;2.85;;
57025;SDS011;43961;52.940;6.834;2022-12-07T07:47:16;18.57;;;3.80;;
57025;SDS011;43961;52.940;6.834;2022-12-07T07:49:41;5.80;;;2.25;;
57025;SDS011;43961;52.940;6.834;2022-12-07T07:52:07;19.63;;;3.63;;
57025;SDS011;43961;52.940;6.834;2022-12-07T07:54:33;5.93;;;1.42;;
57025;SDS011;43961;52.940;6.834;2022-12-07T07:56:59;12.57;;;4.03;;
57025;SDS011;43961;52.940;6.834;2022-12-07T07:59:25;12.50;;;3.45;;
57025;SDS011;43961;52.940;6.834;2022-12-07T08:01:51;11.23;;;2.83;;
57025;SDS011;43961;52.940;6.834;2022-12-07T08:04:16;14.25;;;3.17;;
57025;SDS011;43961;52.940;6.834;2022-12-07T08:06:42;10.60;;;2.78;;
57025;SDS011;43961;52.940;6.834;2022-12-07T08:09:08;15.57;;;3.25;;
57025;SDS011;43961;52.940;6.834;2022-12-07T08:11:34;11.77;;;2.85;;
57025;SDS011;43961;52.940;6.834;2022-12-07T08:14:01;19.98;;;3.50;;
57025;SDS011;43961;52.940;6.834;2022-12-07T08:16:27;1.75;;;1.20;;
57025;SDS011;43961;52.940;6.834;2022-12-07T08:18:53;12.20;;;2.65;;
57025;SDS011;43961;52.940;6.834;2022-12-07T08:21:19;15.15;;;2.75;;
57025;SDS011;43961;52.940;6.834;2022-12-07T08:23:45;14.05;;;2.80;;
57025;SDS011;43961;52.940;6.834;2022-12-07T08:26:11;10.13;;;3.03;;
57025;SDS011;43961;52.940;6.834;2022-12-07T08:28:39;6.50;;;1.00;;
57025;SDS011;43961;52.940;6.834;2022-12-07T08:31:06;9.10;;;2.53;;
57025;SDS011;43961;52.940;6.834;2022-12-07T08:33:35;4.53;;;1.45;;
57025;SDS011;43961;52.940;6.834;2022-12-07T08:36:05;10.20;;;2.80;;
57025;SDS011;43961;52.940;6.834;2022-12-07T08:38:34;22.83;;;2.90;;
57025;SDS011;43961;52.940;6.834;2022-12-07T08:41:00;3.58;;;1.08;;
57025;SDS011;43961;52.940;6.834;2022-12-07T08:43:26;7.55;;;2.55;;
57025;SDS011;43961;52.940;6.834;2022-12-07T08:46:01;8.55;;;3.22;;
57025;SDS011;43961;52.940;6.834;2022-12-07T08:48:52;9.13;;;2.92;;
57025;SDS011;43961;52.940;6.834;2022-12-07T08:51:21;10.70;;;2.70;;
57025;SDS011;43961;52.940;6.834;2022-12-07T08:53:48;11.02;;;3.47;;
57025;SDS011;43961;52.940;6.834;2022-12-07T08:56:16;8.43;;;3.37;;
57025;SDS011;43961;52.940;6.834;2022-12-07T08:58:42;12.82;;;3.88;;
57025;SDS011;43961;52.940;6.834;2022-12-07T09:01:08;13.27;;;4.25;;
57025;SDS011;43961;52.940;6.834;2022-12-07T09:03:34;9.00;;;3.65;;
57025;SDS011;43961;52.940;6.834;2022-12-07T09:06:00;14.38;;;3.53;;
57025;SDS011;43961;52.940;6.834;2022-12-07T09:08:27;12.40;;;3.90;;
57025;SDS011;43961;52.940;6.834;2022-12-07T09:10:59;11.55;;;3.90;;
57025;SDS011;43961;52.940;6.834;2022-12-07T09:13:25;16.83;;;3.97;;
57025;SDS011;43961;52.940;6.834;2022-12-07T09:15:51;10.40;;;3.88;;
57025;SDS011;43961;52.940;6.834;2022-12-07T09:18:16;14.38;;;4.22;;
57025;SDS011;43961;52.940;6.834;2022-12-07T09:20:42;18.55;;;4.97;;
57025;SDS011;43961;52.940;6.834;2022-12-07T09:23:08;17.50;;;6.10;;
57025;SDS011;43961;52.940;6.834;2022-12-07T09:25:34;16.50;;;4.32;;
57025;SDS011;43961;52.940;6.834;2022-12-07T09:28:00;11.48;;;3.55;;
57025;SDS011;43961;52.940;6.834;2022-12-07T09:30:26;16.35;;;3.40;;
57025;SDS011;43961;52.940;6.834;2022-12-07T09:32:53;18.63;;;4.07;;
57025;SDS011;43961;52.940;6.834;2022-12-07T09:35:19;12.25;;;3.88;;
57025;SDS011;43961;52.940;6.834;2022-12-07T09:37:45;10.00;;;3.55;;
57025;SDS011;43961;52.940;6.834;2022-12-07T09:40:12;14.98;;;3.60;;
57025;SDS011;43961;52.940;6.834;2022-12-07T09:42:39;11.05;;;2.70;;
57025;SDS011;43961;52.940;6.834;2022-12-07T09:45:12;13.80;;;3.53;;
57025;SDS011;43961;52.940;6.834;2022-12-07T09:47:44;22.13;;;3.95;;
57025;SDS011;43961;52.940;6.834;2022-12-07T09:50:16;22.30;;;4.30;;
57025;SDS011;43961;52.940;6.834;2022-12-07T09:52:45;14.65;;;3.65;;
57025;SDS011;43961;52.940;6.834;2022-12-07T09:55:14;22.02;;;4.53;;
57025;SDS011;43961;52.940;6.834;2022-12-07T09:57:42;16.80;;;3.58;;
57025;SDS011;43961;52.940;6.834;2022-12-07T10:00:12;9.70;;;3.75;;
57025;SDS011;43961;52.940;6.834;2022-12-07T10:05:22;8.20;;;3.58;;
57025;SDS011;43961;52.940;6.834;2022-12-07T10:07:51;9.88;;;3.90;;
57025;SDS011;43961;52.940;6.834;2022-12-07T10:10:23;12.98;;;4.28;;
57025;SDS011;43961;52.940;6.834;2022-12-07T10:15:49;20.67;;;4.75;;
57025;SDS011;43961;52.940;6.834;2022-12-07T10:18:29;18.90;;;4.18;;
57025;SDS011;43961;52.940;6.834;2022-12-07T10:26:29;9.70;;;3.85;;
57025;SDS011;43961;52.940;6.834;2022-12-07T10:29:13;13.07;;;4.13;;
57025;SDS011;43961;52.940;6.834;2022-12-07T10:31:46;11.23;;;3.25;;
57025;SDS011;43961;52.940;6.834;2022-12-07T10:34:28;11.80;;;3.75;;
57025;SDS011;43961;52.940;6.834;2022-12-07T10:37:15;16.55;;;3.95;;
57025;SDS011;43961;52.940;6.834;2022-12-07T10:39:53;19.20;;;3.83;;
57025;SDS011;43961;52.940;6.834;2022-12-07T10:42:24;6.87;;;3.43;;
57025;SDS011;43961;52.940;6.834;2022-12-07T10:47:52;13.25;;;2.88;;
57025;SDS011;43961;52.940;6.834;2022-12-07T10:56:29;6.32;;;2.53;;
57025;SDS011;43961;52.940;6.834;2022-12-07T11:09:03;14.43;;;3.17;;
57025;SDS011;43961;52.940;6.834;2022-12-07T11:11:52;8.52;;;2.25;;
57025;SDS011;43961;52.940;6.834;2022-12-07T11:14:31;10.07;;;2.72;;
57025;SDS011;43961;52.940;6.834;2022-12-07T11:17:23;3.88;;;2.15;;
57025;SDS011;43961;52.940;6.834;2022-12-07T11:25:30;18.75;;;4.18;;
57025;SDS011;43961;52.940;6.834;2022-12-07T11:31:13;11.75;;;3.55;;
57025;SDS011;43961;52.940;6.834;2022-12-07T11:36:57;15.55;;;3.95;;
57025;SDS011;43961;52.940;6.834;2022-12-07T11:39:33;13.45;;;4.00;;
57025;SDS011;43961;52.940;6.834;2022-12-07T11:42:05;19.58;;;3.75;;
57025;SDS011;43961;52.940;6.834;2022-12-07T11:47:11;12.30;;;3.42;;
57025;SDS011;43961;52.940;6.834;2022-12-07T11:58:18;12.63;;;3.53;;
57025;SDS011;43961;52.940;6.834;2022-12-07T12:03:38;10.35;;;2.25;;
57025;SDS011;43961;52.940;6.834;2022-12-07T12:06:09;5.03;;;1.60;;
57025;SDS011;43961;52.940;6.834;2022-12-07T12:11:55;11.50;;;2.58;;
57025;SDS011;43961;52.940;6.834;2022-12-07T12:22:36;7.47;;;1.80;;
57025;SDS011;43961;52.940;6.834;2022-12-07T12:25:06;9.15;;;1.70;;
57025;SDS011;43961;52.940;6.834;2022-12-07T12:27:46;11.45;;;3.05;;
57025;SDS011;43961;52.940;6.834;2022-12-07T12:30:24;7.60;;;2.85;;
57025;SDS011;43961;52.940;6.834;2022-12-07T12:33:00;7.35;;;1.60;;
57025;SDS011;43961;52.940;6.834;2022-12-07T12:38:20;8.10;;;2.53;;
57025;SDS011;43961;52.940;6.834;2022-12-07T13:00:01;20.15;;;4.18;;
57025;SDS011;43961;52.940;6.834;2022-12-07T13:02:49;11.23;;;3.47;;
57025;SDS011;43961;52.940;6.834;2022-12-07T13:05:18;9.95;;;3.28;;
57025;SDS011;43961;52.940;6.834;2022-12-07T13:13:00;11.15;;;4.35;;
57025;SDS011;43961;52.940;6.834;2022-12-07T13:20:51;11.85;;;4.45;;
57025;SDS011;43961;52.940;6.834;2022-12-07T13:23:33;16.08;;;3.63;;
57025;SDS011;43961;52.940;6.834;2022-12-07T13:26:23;10.80;;;3.83;;
57025;SDS011;43961;52.940;6.834;2022-12-07T13:31:54;20.95;;;3.22;;
57025;SDS011;43961;52.940;6.834;2022-12-07T13:36:56;7.88;;;3.15;;
57025;SDS011;43961;52.940;6.834;2022-12-07T13:39:23;9.00;;;2.63;;
57025;SDS011;43961;52.940;6.834;2022-12-07T13:41:52;7.10;;;2.45;;
57025;SDS011;43961;52.940;6.834;2022-12-07T13:44:20;16.02;;;3.10;;
57025;SDS011;43961;52.940;6.834;2022-12-07T13:46:55;27.98;;;2.92;;
57025;SDS011;43961;52.940;6.834;2022-12-07T13:55:15;5.50;;;1.63;;
57025;SDS011;43961;52.940;6.834;2022-12-07T13:57:44;5.05;;;1.65;;
57025;SDS011;43961;52.940;6.834;2022-12-07T14:00:17;1.98;;;1.25;;
57025;SDS011;43961;52.940;6.834;2022-12-07T14:05:52;11.35;;;1.55;;
57025;SDS011;43961;52.940;6.834;2022-12-07T14:08:40;3.90;;;1.42;;
57025;SDS011;43961;52.940;6.834;2022-12-07T14:11:07;7.13;;;1.75;;
57025;SDS011;43961;52.940;6.834;2022-12-07T14:14:00;5.13;;;1.23;;
57025;SDS011;43961;52.940;6.834;2022-12-07T14:16:27;3.22;;;1.38;;
57025;SDS011;43961;52.940;6.834;2022-12-07T14:18:59;3.88;;;1.60;;
57025;SDS011;43961;52.940;6.834;2022-12-07T14:21:28;5.88;;;1.63;;
57025;SDS011;43961;52.940;6.834;2022-12-07T14:24:04;4.72;;;1.27;;
57025;SDS011;43961;52.940;6.834;2022-12-07T14:26:36;4.60;;;1.75;;
57025;SDS011;43961;52.940;6.834;2022-12-07T14:31:44;31.48;;;2.25;;
57025;SDS011;43961;52.940;6.834;2022-12-07T14:34:13;6.88;;;1.50;;
57025;SDS011;43961;52.940;6.834;2022-12-07T14:36:39;1.17;;;0.93;;
57025;SDS011;43961;52.940;6.834;2022-12-07T14:39:04;10.25;;;2.05;;
57025;SDS011;43961;52.940;6.834;2022-12-07T14:41:30;2.95;;;1.35;;
57025;SDS011;43961;52.940;6.834;2022-12-07T14:44:14;4.03;;;1.50;;
57025;SDS011;43961;52.940;6.834;2022-12-07T14:46:41;2.53;;;1.27;;
57025;SDS011;43961;52.940;6.834;2022-12-07T14:49:07;1.98;;;1.10;;
57025;SDS011;43961;52.940;6.834;2022-12-07T14:51:33;5.18;;;1.45;;
57025;SDS011;43961;52.940;6.834;2022-12-07T14:54:00;2.15;;;1.52;;
57025;SDS011;43961;52.940;6.834;2022-12-07T14:56:26;4.65;;;1.20;;
57025;SDS011;43961;52.940;6.834;2022-12-07T14:58:53;6.75;;;1.63;;
57025;SDS011;43961;52.940;6.834;2022-12-07T15:01:18;3.92;;;1.60;;
57025;SDS011;43961;52.940;6.834;2022-12-07T15:03:44;7.50;;;1.45;;
57025;SDS011;43961;52.940;6.834;2022-12-07T15:06:12;4.05;;;1.42;;
57025;SDS011;43961;52.940;6.834;2022-12-07T15:08:39;2.83;;;1.73;;
57025;SDS011;43961;52.940;6.834;2022-12-07T15:11:05;2.85;;;1.90;;
57025;SDS011;43961;52.940;6.834;2022-12-07T15:13:30;6.85;;;2.97;;
57025;SDS011;43961;52.940;6.834;2022-12-07T15:16:16;7.70;;;3.47;;
57025;SDS011;43961;52.940;6.834;2022-12-07T15:18:46;11.35;;;4.03;;
57025;SDS011;43961;52.940;6.834;2022-12-07T15:21:13;9.07;;;4.23;;
57025;SDS011;43961;52.940;6.834;2022-12-07T15:23:40;13.87;;;5.40;;
57025;SDS011;43961;52.940;6.834;2022-12-07T15:26:06;7.75;;;2.30;;
57025;SDS011;43961;52.940;6.834;2022-12-07T15:28:33;7.00;;;2.20;;
57025;SDS011;43961;52.940;6.834;2022-12-07T15:30:58;5.78;;;2.28;;
57025;SDS011;43961;52.940;6.834;2022-12-07T15:33:24;17.27;;;3.30;;
57025;SDS011;43961;52.940;6.834;2022-12-07T15:35:51;10.25;;;2.33;;
57025;SDS011;43961;52.940;6.834;2022-12-07T15:38:16;5.95;;;2.15;;
57025;SDS011;43961;52.940;6.834;2022-12-07T15:40:42;10.07;;;2.80;;
57025;SDS011;43961;52.940;6.834;2022-12-07T15:43:12;18.73;;;3.47;;
57025;SDS011;43961;52.940;6.834;2022-12-07T15:45:56;4.72;;;2.63;;
57025;SDS011;43961;52.940;6.834;2022-12-07T15:48:22;6.38;;;1.20;;
57025;SDS011;43961;52.940;6.834;2022-12-07T15:50:48;4.80;;;2.42;;
57025;SDS011;43961;52.940;6.834;2022-12-07T15:53:14;5.75;;;2.40;;
57025;SDS011;43961;52.940;6.834;2022-12-07T15:55:39;3.92;;;2.05;;
57025;SDS011;43961;52.940;6.834;2022-12-07T15:58:05;7.55;;;2.53;;
57025;SDS011;43961;52.940;6.834;2022-12-07T16:00:31;7.65;;;2.67;;
57025;SDS011;43961;52.940;6.834;2022-12-07T16:02:57;4.55;;;2.25;;
57025;SDS011;43961;52.940;6.834;2022-12-07T16:05:23;2.80;;;1.55;;
57025;SDS011;43961;52.940;6.834;2022-12-07T16:07:49;13.85;;;3.97;;
57025;SDS011;43961;52.940;6.834;2022-12-07T16:10:15;7.75;;;3.58;;
57025;SDS011;43961;52.940;6.834;2022-12-07T16:12:41;14.07;;;6.78;;
57025;SDS011;43961;52.940;6.834;2022-12-07T16:15:07;10.93;;;6.07;;
57025;SDS011;43961;52.940;6.834;2022-12-07T16:17:33;6.70;;;5.28;;
57025;SDS011;43961;52.940;6.834;2022-12-07T16:19:59;13.23;;;5.97;;
57025;SDS011;43961;52.940;6.834;2022-12-07T16:22:25;24.52;;;9.40;;
57025;SDS011;43961;52.940;6.834;2022-12-07T16:24:50;21.70;;;8.93;;
57025;SDS011;43961;52.940;6.834;2022-12-07T16:27:16;15.68;;;5.95;;
57025;SDS011;43961;52.940;6.834;2022-12-07T16:29:42;18.95;;;9.43;;
57025;SDS011;43961;52.940;6.834;2022-12-07T16:32:07;15.70;;;8.20;;
57025;SDS011;43961;52.940;6.834;2022-12-07T16:34:33;14.40;;;6.72;;
57025;SDS011;43961;52.940;6.834;2022-12-07T16:36:59;13.38;;;6.13;;
57025;SDS011;43961;52.940;6.834;2022-12-07T16:39:24;9.05;;;5.50;;
57025;SDS011;43961;52.940;6.834;2022-12-07T16:41:50;11.98;;;6.55;;
57025;SDS011;43961;52.940;6.834;2022-12-07T16:44:17;9.40;;;5.55;;
57025;SDS011;43961;52.940;6.834;2022-12-07T16:46:43;13.20;;;5.10;;
57025;SDS011;43961;52.940;6.834;2022-12-07T16:49:13;13.73;;;5.55;;
57025;SDS011;43961;52.940;6.834;2022-12-07T16:51:41;10.75;;;4.93;;
57025;SDS011;43961;52.940;6.834;2022-12-07T16:54:11;9.27;;;4.45;;
57025;SDS011;43961;52.940;6.834;2022-12-07T16:56:37;11.02;;;4.55;;
57025;SDS011;43961;52.940;6.834;2022-12-07T16:59:03;12.88;;;4.60;;
57025;SDS011;43961;52.940;6.834;2022-12-07T17:01:29;12.50;;;5.07;;
57025;SDS011;43961;52.940;6.834;2022-12-07T17:03:56;3.08;;;1.85;;
57025;SDS011;43961;52.940;6.834;2022-12-07T17:06:24;11.10;;;4.22;;
57025;SDS011;43961;52.940;6.834;2022-12-07T17:08:52;18.42;;;4.53;;
57025;SDS011;43961;52.940;6.834;2022-12-07T17:11:19;8.48;;;4.53;;
57025;SDS011;43961;52.940;6.834;2022-12-07T17:13:51;8.40;;;3.85;;
57025;SDS011;43961;52.940;6.834;2022-12-07T17:16:36;8.55;;;3.67;;
57025;SDS011;43961;52.940;6.834;2022-12-07T17:19:05;3.92;;;2.78;;
57025;SDS011;43961;52.940;6.834;2022-12-07T17:21:32;8.88;;;3.00;;
57025;SDS011;43961;52.940;6.834;2022-12-07T17:23:59;6.78;;;2.65;;
57025;SDS011;43961;52.940;6.834;2022-12-07T17:26:26;5.18;;;2.58;;
57025;SDS011;43961;52.940;6.834;2022-12-07T17:28:53;6.13;;;2.60;;
57025;SDS011;43961;52.940;6.834;2022-12-07T17:31:20;11.88;;;3.53;;
57025;SDS011;43961;52.940;6.834;2022-12-07T17:33:47;6.45;;;1.92;;
57025;SDS011;43961;52.940;6.834;2022-12-07T17:38:40;9.30;;;2.08;;